sensor_id;sensor_type;location;lat;lon;timestamp;pressure;altitude;pressure_sealevel;temperature;humidity
20630;BME280;17386;43.846;25.950;2023-03-11T00:00:10;99410.63;;;12.37;100.00
20630;BME280;17386;43.846;25.950;2023-03-11T00:02:38;99415.28;;;12.19;100.00
20630;BME280;17386;43.846;25.950;2023-03-11T00:05:05;99407.31;;;12.05;100.00
20630;BME280;17386;43.846;25.950;2023-03-11T00:07:31;99409.81;;;12.08;100.00
20630;BME280;17386;43.846;25.950;2023-03-11T00:09:57;99413.38;;;12.21;100.00
20630;BME280;17386;43.846;25.950;2023-03-11T00:12:23;99411.97;;;12.16;100.00
20630;BME280;17386;43.846;25.950;2023-03-11T00:14:48;99415.28;;;12.19;100.00
20630;BME280;17386;43.846;25.950;2023-03-11T00:17:14;99418.41;;;12.26;100.00
20630;BME280;17386;43.846;25.950;2023-03-11T00:19:39;99418.72;;;12.36;100.00
20630;BME280;17386;43.846;25.950;2023-03-11T00:22:04;99408.88;;;12.50;100.00
20630;BME280;17386;43.846;25.950;2023-03-11T00:24:30;99413.50;;;12.61;100.00
20630;BME280;17386;43.846;25.950;2023-03-11T00:26:55;99409.28;;;12.71;100.00
20630;BME280;17386;43.846;25.950;2023-03-11T00:29:20;99400.69;;;12.80;100.00
20630;BME280;17386;43.846;25.950;2023-03-11T00:31:46;99395.56;;;12.90;100.00
20630;BME280;17386;43.846;25.950;2023-03-11T00:34:11;99384.63;;;12.95;100.00
20630;BME280;17386;43.846;25.950;2023-03-11T00:36:37;99379.00;;;12.99;100.00
20630;BME280;17386;43.846;25.950;2023-03-11T00:39:03;99375.25;;;13.02;100.00
20630;BME280;17386;43.846;25.950;2023-03-11T00:41:33;99385.03;;;12.88;100.00
20630;BME280;17386;43.846;25.950;2023-03-11T00:43:59;99378.44;;;12.67;100.00
20630;BME280;17386;43.846;25.950;2023-03-11T00:46:24;99365.41;;;12.77;100.00
20630;BME280;17386;43.846;25.950;2023-03-11T00:48:50;99356.97;;;12.83;100.00
20630;BME280;17386;43.846;25.950;2023-03-11T00:51:16;99342.38;;;12.88;100.00
20630;BME280;17386;43.846;25.950;2023-03-11T00:53:42;99335.25;;;12.89;100.00
20630;BME280;17386;43.846;25.950;2023-03-11T00:56:12;99338.34;;;12.96;100.00
20630;BME280;17386;43.846;25.950;2023-03-11T00:58:38;99324.59;;;13.02;100.00
20630;BME280;17386;43.846;25.950;2023-03-11T01:01:09;99322.25;;;13.10;100.00
20630;BME280;17386;43.846;25.950;2023-03-11T01:03:35;99307.03;;;13.12;100.00
20630;BME280;17386;43.846;25.950;2023-03-11T01:06:00;99285.72;;;13.12;100.00
20630;BME280;17386;43.846;25.950;2023-03-11T01:08:26;99279.00;;;13.19;100.00
20630;BME280;17386;43.846;25.950;2023-03-11T01:10:52;99284.25;;;13.21;100.00
20630;BME280;17386;43.846;25.950;2023-03-11T01:13:17;99276.13;;;13.22;100.00
20630;BME280;17386;43.846;25.950;2023-03-11T01:15:43;99271.66;;;13.23;100.00
20630;BME280;17386;43.846;25.950;2023-03-11T01:18:08;99268.13;;;13.22;100.00
20630;BME280;17386;43.846;25.950;2023-03-11T01:20:35;99268.25;;;13.21;100.00
20630;BME280;17386;43.846;25.950;2023-03-11T01:23:01;99271.31;;;13.14;100.00
20630;BME280;17386;43.846;25.950;2023-03-11T01:25:26;99277.94;;;13.22;100.00
20630;BME280;17386;43.846;25.950;2023-03-11T01:27:52;99267.16;;;13.23;100.00
20630;BME280;17386;43.846;25.950;2023-03-11T01:30:20;99265.34;;;13.24;100.00
20630;BME280;17386;43.846;25.950;2023-03-11T01:32:46;99265.03;;;13.28;100.00
20630;BME280;17386;43.846;25.950;2023-03-11T01:35:13;99263.84;;;13.20;100.00
20630;BME280;17386;43.846;25.950;2023-03-11T01:37:39;99254.88;;;13.08;100.00
20630;BME280;17386;43.846;25.950;2023-03-11T01:40:06;99255.84;;;13.07;100.00
20630;BME280;17386;43.846;25.950;2023-03-11T01:42:32;99252.63;;;13.02;100.00
20630;BME280;17386;43.846;25.950;2023-03-11T01:44:58;99245.47;;;13.02;100.00
20630;BME280;17386;43.846;25.950;2023-03-11T01:47:37;99239.31;;;13.02;100.00
20630;BME280;17386;43.846;25.950;2023-03-11T01:50:06;99248.38;;;12.99;100.00
20630;BME280;17386;43.846;25.950;2023-03-11T01:52:34;99230.25;;;12.92;100.00
20630;BME280;17386;43.846;25.950;2023-03-11T01:55:00;99233.44;;;12.97;100.00
20630;BME280;17386;43.846;25.950;2023-03-11T01:57:26;99229.41;;;13.04;100.00
20630;BME280;17386;43.846;25.950;2023-03-11T01:59:55;99234.41;;;13.08;100.00
20630;BME280;17386;43.846;25.950;2023-03-11T02:02:33;99232.69;;;12.95;100.00
20630;BME280;17386;43.846;25.950;2023-03-11T02:05:01;99238.34;;;12.77;100.00
20630;BME280;17386;43.846;25.950;2023-03-11T02:07:27;99234.69;;;12.66;100.00
20630;BME280;17386;43.846;25.950;2023-03-11T02:09:52;99246.84;;;12.57;100.00
20630;BME280;17386;43.846;25.950;2023-03-11T02:12:18;99244.25;;;12.55;100.00
20630;BME280;17386;43.846;25.950;2023-03-11T02:14:47;99248.50;;;12.45;100.00
20630;BME280;17386;43.846;25.950;2023-03-11T02:17:13;99243.81;;;12.49;100.00
20630;BME280;17386;43.846;25.950;2023-03-11T02:22:17;99241.59;;;12.43;100.00
20630;BME280;17386;43.846;25.950;2023-03-11T02:24:56;99240.53;;;12.45;100.00
20630;BME280;17386;43.846;25.950;2023-03-11T02:27:26;99229.44;;;12.39;100.00
20630;BME280;17386;43.846;25.950;2023-03-11T02:29:52;99227.63;;;12.39;100.00
20630;BME280;17386;43.846;25.950;2023-03-11T02:32:21;99224.84;;;12.41;100.00
20630;BME280;17386;43.846;25.950;2023-03-11T02:34:46;99215.69;;;12.45;100.00
20630;BME280;17386;43.846;25.950;2023-03-11T02:37:14;99209.84;;;12.52;100.00
20630;BME280;17386;43.846;25.950;2023-03-11T02:39:45;99209.56;;;12.57;100.00
20630;BME280;17386;43.846;25.950;2023-03-11T02:44:44;99210.72;;;12.66;100.00
20630;BME280;17386;43.846;25.950;2023-03-11T02:47:11;99200.81;;;12.68;100.00
20630;BME280;17386;43.846;25.950;2023-03-11T02:49:37;99204.88;;;12.73;100.00
20630;BME280;17386;43.846;25.950;2023-03-11T02:52:03;99171.63;;;12.66;100.00
20630;BME280;17386;43.846;25.950;2023-03-11T02:54:29;99193.78;;;12.79;100.00
20630;BME280;17386;43.846;25.950;2023-03-11T02:56:54;99188.78;;;12.75;100.00
20630;BME280;17386;43.846;25.950;2023-03-11T02:59:19;99201.25;;;12.74;100.00
20630;BME280;17386;43.846;25.950;2023-03-11T03:01:45;99200.09;;;12.78;100.00
20630;BME280;17386;43.846;25.950;2023-03-11T03:04:10;99197.63;;;12.75;100.00
20630;BME280;17386;43.846;25.950;2023-03-11T03:06:36;99196.75;;;12.75;100.00
20630;BME280;17386;43.846;25.950;2023-03-11T03:09:02;99187.72;;;12.77;100.00
20630;BME280;17386;43.846;25.950;2023-03-11T03:11:27;99177.81;;;12.79;100.00
20630;BME280;17386;43.846;25.950;2023-03-11T03:13:53;99169.69;;;12.81;100.00
20630;BME280;17386;43.846;25.950;2023-03-11T03:16:18;99167.88;;;12.81;100.00
20630;BME280;17386;43.846;25.950;2023-03-11T03:18:44;99160.53;;;12.85;100.00
20630;BME280;17386;43.846;25.950;2023-03-11T03:21:09;99161.59;;;12.82;100.00
20630;BME280;17386;43.846;25.950;2023-03-11T03:23:35;99156.06;;;12.85;100.00
20630;BME280;17386;43.846;25.950;2023-03-11T03:26:03;99163.31;;;12.83;100.00
20630;BME280;17386;43.846;25.950;2023-03-11T03:28:29;99164.16;;;12.71;100.00
20630;BME280;17386;43.846;25.950;2023-03-11T03:30:54;99172.13;;;12.46;100.00
20630;BME280;17386;43.846;25.950;2023-03-11T03:33:20;99172.84;;;12.35;100.00
20630;BME280;17386;43.846;25.950;2023-03-11T03:35:45;99173.22;;;12.43;100.00
20630;BME280;17386;43.846;25.950;2023-03-11T03:38:11;99168.91;;;12.28;100.00
20630;BME280;17386;43.846;25.950;2023-03-11T03:40:37;99178.25;;;12.21;100.00
20630;BME280;17386;43.846;25.950;2023-03-11T03:43:03;99167.53;;;12.22;100.00
20630;BME280;17386;43.846;25.950;2023-03-11T03:45:28;99171.66;;;12.26;100.00
20630;BME280;17386;43.846;25.950;2023-03-11T03:47:54;99173.28;;;12.29;100.00
20630;BME280;17386;43.846;25.950;2023-03-11T03:50:19;99184.69;;;12.31;100.00
20630;BME280;17386;43.846;25.950;2023-03-11T03:52:45;99183.16;;;12.27;100.00
20630;BME280;17386;43.846;25.950;2023-03-11T03:55:10;99186.59;;;12.29;100.00
20630;BME280;17386;43.846;25.950;2023-03-11T03:57:36;99170.41;;;12.32;100.00
20630;BME280;17386;43.846;25.950;2023-03-11T04:00:02;99189.91;;;12.45;100.00
20630;BME280;17386;43.846;25.950;2023-03-11T04:02:28;99189.28;;;12.54;100.00
20630;BME280;17386;43.846;25.950;2023-03-11T04:04:54;99198.69;;;12.60;100.00
20630;BME280;17386;43.846;25.950;2023-03-11T04:07:20;99191.22;;;12.65;100.00
20630;BME280;17386;43.846;25.950;2023-03-11T04:09:45;99188.16;;;12.71;100.00
20630;BME280;17386;43.846;25.950;2023-03-11T04:12:13;99192.94;;;12.79;100.00
20630;BME280;17386;43.846;25.950;2023-03-11T04:14:40;99193.56;;;12.82;100.00
20630;BME280;17386;43.846;25.950;2023-03-11T04:17:06;99191.31;;;12.76;100.00
20630;BME280;17386;43.846;25.950;2023-03-11T04:19:31;99191.88;;;12.81;100.00
20630;BME280;17386;43.846;25.950;2023-03-11T04:21:57;99195.91;;;12.87;100.00
20630;BME280;17386;43.846;25.950;2023-03-11T04:24:23;99198.34;;;12.90;100.00
20630;BME280;17386;43.846;25.950;2023-03-11T04:26:48;99200.16;;;13.02;100.00
20630;BME280;17386;43.846;25.950;2023-03-11T04:29:14;99203.69;;;13.03;100.00
20630;BME280;17386;43.846;25.950;2023-03-11T04:31:39;99196.78;;;12.87;100.00
20630;BME280;17386;43.846;25.950;2023-03-11T04:34:05;99192.09;;;12.91;100.00
20630;BME280;17386;43.846;25.950;2023-03-11T04:36:30;99185.16;;;12.88;100.00
20630;BME280;17386;43.846;25.950;2023-03-11T04:38:56;99190.38;;;12.90;100.00
20630;BME280;17386;43.846;25.950;2023-03-11T04:41:22;99190.47;;;12.88;100.00
20630;BME280;17386;43.846;25.950;2023-03-11T04:43:47;99188.78;;;12.87;100.00
20630;BME280;17386;43.846;25.950;2023-03-11T04:46:12;99188.78;;;12.87;100.00
20630;BME280;17386;43.846;25.950;2023-03-11T04:48:38;99191.44;;;12.87;100.00
20630;BME280;17386;43.846;25.950;2023-03-11T04:51:04;99190.69;;;12.85;100.00
20630;BME280;17386;43.846;25.950;2023-03-11T04:53:29;99185.03;;;12.90;100.00
20630;BME280;17386;43.846;25.950;2023-03-11T04:55:55;99186.22;;;12.86;100.00
20630;BME280;17386;43.846;25.950;2023-03-11T04:58:20;99177.91;;;12.78;100.00
20630;BME280;17386;43.846;25.950;2023-03-11T05:00:45;99188.03;;;12.85;100.00
20630;BME280;17386;43.846;25.950;2023-03-11T05:03:11;99188.78;;;12.87;100.00
20630;BME280;17386;43.846;25.950;2023-03-11T05:05:36;99186.75;;;12.78;100.00
20630;BME280;17386;43.846;25.950;2023-03-11T05:08:02;99186.44;;;12.70;100.00
20630;BME280;17386;43.846;25.950;2023-03-11T05:10:27;99187.91;;;12.62;100.00
20630;BME280;17386;43.846;25.950;2023-03-11T05:12:53;99187.06;;;12.61;100.00
20630;BME280;17386;43.846;25.950;2023-03-11T05:15:18;99177.66;;;12.55;100.00
20630;BME280;17386;43.846;25.950;2023-03-11T05:17:44;99190.25;;;12.66;100.00
20630;BME280;17386;43.846;25.950;2023-03-11T05:20:10;99189.28;;;12.54;100.00
20630;BME280;17386;43.846;25.950;2023-03-11T05:22:36;99195.91;;;12.62;100.00
20630;BME280;17386;43.846;25.950;2023-03-11T05:25:03;99200.59;;;12.58;100.00
20630;BME280;17386;43.846;25.950;2023-03-11T05:27:28;99209.09;;;12.38;100.00
20630;BME280;17386;43.846;25.950;2023-03-11T05:29:54;99210.19;;;12.21;100.00
20630;BME280;17386;43.846;25.950;2023-03-11T05:32:19;99206.91;;;12.17;100.00
20630;BME280;17386;43.846;25.950;2023-03-11T05:34:45;99196.91;;;11.94;100.00
20630;BME280;17386;43.846;25.950;2023-03-11T05:37:10;99207.38;;;11.97;100.00
20630;BME280;17386;43.846;25.950;2023-03-11T05:39:36;99206.47;;;11.84;100.00
20630;BME280;17386;43.846;25.950;2023-03-11T05:42:03;99205.72;;;11.67;100.00
20630;BME280;17386;43.846;25.950;2023-03-11T05:44:29;99211.41;;;11.75;100.00
20630;BME280;17386;43.846;25.950;2023-03-11T05:46:55;99203.53;;;11.74;100.00
20630;BME280;17386;43.846;25.950;2023-03-11T05:49:20;99200.44;;;11.80;100.00
20630;BME280;17386;43.846;25.950;2023-03-11T05:51:46;99209.88;;;11.86;100.00
20630;BME280;17386;43.846;25.950;2023-03-11T05:54:12;99211.66;;;11.85;100.00
20630;BME280;17386;43.846;25.950;2023-03-11T05:56:43;99210.44;;;11.91;100.00
20630;BME280;17386;43.846;25.950;2023-03-11T05:59:10;99214.16;;;11.74;100.00
20630;BME280;17386;43.846;25.950;2023-03-11T06:01:36;99205.22;;;11.75;100.00
20630;BME280;17386;43.846;25.950;2023-03-11T06:04:02;99207.94;;;11.61;100.00
20630;BME280;17386;43.846;25.950;2023-03-11T06:06:27;99197.06;;;11.64;100.00
20630;BME280;17386;43.846;25.950;2023-03-11T06:08:53;99205.88;;;11.78;100.00
20630;BME280;17386;43.846;25.950;2023-03-11T06:11:19;99210.72;;;11.86;100.00
20630;BME280;17386;43.846;25.950;2023-03-11T06:13:44;99210.53;;;11.89;100.00
20630;BME280;17386;43.846;25.950;2023-03-11T06:16:10;99210.19;;;11.81;100.00
20630;BME280;17386;43.846;25.950;2023-03-11T06:18:36;99214.91;;;11.76;100.00
20630;BME280;17386;43.846;25.950;2023-03-11T06:21:02;99217.22;;;11.68;100.00
20630;BME280;17386;43.846;25.950;2023-03-11T06:23:28;99222.22;;;11.72;100.00
20630;BME280;17386;43.846;25.950;2023-03-11T06:26:02;99219.09;;;11.66;100.00
20630;BME280;17386;43.846;25.950;2023-03-11T06:28:29;99222.81;;;11.63;100.00
20630;BME280;17386;43.846;25.950;2023-03-11T06:30:54;99223.19;;;11.71;100.00
20630;BME280;17386;43.846;25.950;2023-03-11T06:33:23;99236.78;;;11.81;100.00
20630;BME280;17386;43.846;25.950;2023-03-11T06:35:59;99242.63;;;11.86;100.00
20630;BME280;17386;43.846;25.950;2023-03-11T06:38:24;99237.59;;;11.96;100.00
20630;BME280;17386;43.846;25.950;2023-03-11T06:40:50;99250.34;;;11.91;100.00
20630;BME280;17386;43.846;25.950;2023-03-11T06:43:16;99246.03;;;12.02;100.00
20630;BME280;17386;43.846;25.950;2023-03-11T06:45:41;99243.47;;;12.01;100.00
20630;BME280;17386;43.846;25.950;2023-03-11T06:48:07;99244.22;;;12.03;100.00
20630;BME280;17386;43.846;25.950;2023-03-11T06:50:32;99241.56;;;12.03;100.00
20630;BME280;17386;43.846;25.950;2023-03-11T06:52:58;99241.69;;;12.14;100.00
20630;BME280;17386;43.846;25.950;2023-03-11T06:55:23;99222.94;;;12.03;100.00
20630;BME280;17386;43.846;25.950;2023-03-11T06:57:49;99231.38;;;12.10;100.00
20630;BME280;17386;43.846;25.950;2023-03-11T07:00:14;99230.47;;;12.23;100.00
20630;BME280;17386;43.846;25.950;2023-03-11T07:02:40;99220.78;;;12.22;100.00
20630;BME280;17386;43.846;25.950;2023-03-11T07:05:06;99225.47;;;12.31;100.00
20630;BME280;17386;43.846;25.950;2023-03-11T07:07:31;99234.75;;;12.39;100.00
20630;BME280;17386;43.846;25.950;2023-03-11T07:09:57;99234.34;;;12.45;100.00
20630;BME280;17386;43.846;25.950;2023-03-11T07:12:23;99238.97;;;12.68;100.00
20630;BME280;17386;43.846;25.950;2023-03-11T07:14:54;99228.41;;;12.67;100.00
20630;BME280;17386;43.846;25.950;2023-03-11T07:17:20;99243.75;;;12.76;100.00
20630;BME280;17386;43.846;25.950;2023-03-11T07:19:45;99241.00;;;12.77;100.00
20630;BME280;17386;43.846;25.950;2023-03-11T07:22:11;99244.31;;;12.94;100.00
20630;BME280;17386;43.846;25.950;2023-03-11T07:24:37;99246.88;;;12.95;100.00
20630;BME280;17386;43.846;25.950;2023-03-11T07:27:02;99241.00;;;13.03;100.00
20630;BME280;17386;43.846;25.950;2023-03-11T07:29:27;99242.09;;;13.13;100.00
20630;BME280;17386;43.846;25.950;2023-03-11T07:31:53;99243.09;;;13.25;100.00
20630;BME280;17386;43.846;25.950;2023-03-11T07:34:19;99238.78;;;13.48;100.00
20630;BME280;17386;43.846;25.950;2023-03-11T07:36:44;99238.88;;;13.46;100.00
20630;BME280;17386;43.846;25.950;2023-03-11T07:39:14;99241.72;;;13.68;100.00
20630;BME280;17386;43.846;25.950;2023-03-11T07:41:40;99246.25;;;13.79;100.00
20630;BME280;17386;43.846;25.950;2023-03-11T07:44:06;99236.19;;;13.95;100.00
20630;BME280;17386;43.846;25.950;2023-03-11T07:46:31;99240.03;;;13.91;100.00
20630;BME280;17386;43.846;25.950;2023-03-11T07:48:57;99234.31;;;14.09;100.00
20630;BME280;17386;43.846;25.950;2023-03-11T07:51:25;99225.56;;;14.07;100.00
20630;BME280;17386;43.846;25.950;2023-03-11T07:53:53;99228.00;;;14.10;100.00
20630;BME280;17386;43.846;25.950;2023-03-11T07:56:19;99227.97;;;13.86;100.00
20630;BME280;17386;43.846;25.950;2023-03-11T07:58:46;99230.28;;;14.03;100.00
20630;BME280;17386;43.846;25.950;2023-03-11T08:01:17;99226.75;;;14.03;100.00
20630;BME280;17386;43.846;25.950;2023-03-11T08:03:44;99217.72;;;14.16;100.00
20630;BME280;17386;43.846;25.950;2023-03-11T08:06:15;99217.91;;;14.50;100.00
20630;BME280;17386;43.846;25.950;2023-03-11T08:08:41;99218.63;;;14.52;100.00
20630;BME280;17386;43.846;25.950;2023-03-11T08:11:06;99216.41;;;14.46;100.00
20630;BME280;17386;43.846;25.950;2023-03-11T08:13:32;99206.88;;;14.66;100.00
20630;BME280;17386;43.846;25.950;2023-03-11T08:15:58;99205.81;;;14.80;100.00
20630;BME280;17386;43.846;25.950;2023-03-11T08:18:23;99206.16;;;14.64;100.00
20630;BME280;17386;43.846;25.950;2023-03-11T08:20:49;99216.59;;;14.67;100.00
20630;BME280;17386;43.846;25.950;2023-03-11T08:23:14;99214.31;;;14.73;100.00
20630;BME280;17386;43.846;25.950;2023-03-11T08:25:40;99211.09;;;15.03;100.00
20630;BME280;17386;43.846;25.950;2023-03-11T08:28:06;99216.31;;;15.05;100.00
20630;BME280;17386;43.846;25.950;2023-03-11T08:30:33;99207.28;;;14.95;100.00
20630;BME280;17386;43.846;25.950;2023-03-11T08:32:58;99203.38;;;14.88;100.00
20630;BME280;17386;43.846;25.950;2023-03-11T08:35:24;99201.19;;;14.82;100.00
20630;BME280;17386;43.846;25.950;2023-03-11T08:37:51;99203.84;;;14.70;100.00
20630;BME280;17386;43.846;25.950;2023-03-11T08:40:16;99188.31;;;14.87;100.00
20630;BME280;17386;43.846;25.950;2023-03-11T08:42:42;99198.44;;;15.05;100.00
20630;BME280;17386;43.846;25.950;2023-03-11T08:45:08;99194.41;;;15.00;100.00
20630;BME280;17386;43.846;25.950;2023-03-11T08:47:35;99195.03;;;14.92;100.00
20630;BME280;17386;43.846;25.950;2023-03-11T08:50:02;99190.28;;;15.07;100.00
20630;BME280;17386;43.846;25.950;2023-03-11T08:52:27;99191.63;;;15.01;100.00
20630;BME280;17386;43.846;25.950;2023-03-11T08:54:53;99190.16;;;14.97;100.00
20630;BME280;17386;43.846;25.950;2023-03-11T08:57:18;99181.88;;;14.78;100.00
20630;BME280;17386;43.846;25.950;2023-03-11T08:59:43;99182.00;;;14.88;100.00
20630;BME280;17386;43.846;25.950;2023-03-11T09:02:09;99188.69;;;14.93;100.00
20630;BME280;17386;43.846;25.950;2023-03-11T09:04:35;99178.38;;;15.11;100.00
20630;BME280;17386;43.846;25.950;2023-03-11T09:07:01;99176.81;;;14.97;100.00
20630;BME280;17386;43.846;25.950;2023-03-11T09:09:26;99181.78;;;15.24;100.00
20630;BME280;17386;43.846;25.950;2023-03-11T09:11:52;99152.13;;;15.39;100.00
20630;BME280;17386;43.846;25.950;2023-03-11T09:14:17;99171.50;;;15.85;100.00
20630;BME280;17386;43.846;25.950;2023-03-11T09:16:43;99175.25;;;15.94;100.00
20630;BME280;17386;43.846;25.950;2023-03-11T09:19:11;99171.53;;;15.74;100.00
20630;BME280;17386;43.846;25.950;2023-03-11T09:21:37;99164.72;;;15.70;100.00
20630;BME280;17386;43.846;25.950;2023-03-11T09:24:03;99167.88;;;15.75;100.00
20630;BME280;17386;43.846;25.950;2023-03-11T09:26:29;99167.50;;;15.80;100.00
20630;BME280;17386;43.846;25.950;2023-03-11T09:28:55;99169.78;;;15.84;100.00
20630;BME280;17386;43.846;25.950;2023-03-11T09:31:22;99160.94;;;16.05;100.00
20630;BME280;17386;43.846;25.950;2023-03-11T09:33:48;99169.84;;;15.73;98.77
20630;BME280;17386;43.846;25.950;2023-03-11T09:36:19;99163.41;;;15.65;98.51
20630;BME280;17386;43.846;25.950;2023-03-11T09:38:46;99154.16;;;15.46;99.23
20630;BME280;17386;43.846;25.950;2023-03-11T09:47:02;99126.50;;;15.57;100.00
20630;BME280;17386;43.846;25.950;2023-03-11T09:49:54;99159.06;;;15.84;97.28
20630;BME280;17386;43.846;25.950;2023-03-11T09:52:35;99173.16;;;16.30;96.60
20630;BME280;17386;43.846;25.950;2023-03-11T09:55:06;99151.84;;;16.28;93.32
20630;BME280;17386;43.846;25.950;2023-03-11T09:57:36;99150.88;;;16.50;94.56
20630;BME280;17386;43.846;25.950;2023-03-11T10:00:05;99148.91;;;16.52;93.01
20630;BME280;17386;43.846;25.950;2023-03-11T10:02:31;99142.22;;;16.67;91.41
20630;BME280;17386;43.846;25.950;2023-03-11T10:05:06;99145.78;;;16.89;89.15
20630;BME280;17386;43.846;25.950;2023-03-11T10:07:41;99159.63;;;16.94;87.52
20630;BME280;17386;43.846;25.950;2023-03-11T10:10:13;99153.66;;;17.11;85.33
20630;BME280;17386;43.846;25.950;2023-03-11T10:21:17;99141.66;;;17.65;83.60
20630;BME280;17386;43.846;25.950;2023-03-11T10:24:02;99139.22;;;17.53;85.03
20630;BME280;17386;43.846;25.950;2023-03-11T10:26:35;99129.75;;;17.48;84.43
20630;BME280;17386;43.846;25.950;2023-03-11T10:32:12;99128.59;;;17.01;86.71
20630;BME280;17386;43.846;25.950;2023-03-11T10:34:50;99123.88;;;16.63;89.25
20630;BME280;17386;43.846;25.950;2023-03-11T10:40:07;99112.72;;;16.67;89.54
20630;BME280;17386;43.846;25.950;2023-03-11T10:42:43;99094.25;;;16.64;91.49
20630;BME280;17386;43.846;25.950;2023-03-11T10:45:12;99105.13;;;16.93;90.36
20630;BME280;17386;43.846;25.950;2023-03-11T10:47:38;99094.00;;;17.48;89.17
20630;BME280;17386;43.846;25.950;2023-03-11T10:50:03;99093.59;;;17.53;86.21
20630;BME280;17386;43.846;25.950;2023-03-11T10:52:29;99095.44;;;17.52;84.34
20630;BME280;17386;43.846;25.950;2023-03-11T10:54:59;99092.59;;;17.44;84.66
20630;BME280;17386;43.846;25.950;2023-03-11T10:57:32;99080.38;;;17.11;84.93
20630;BME280;17386;43.846;25.950;2023-03-11T11:00:00;99077.44;;;17.43;87.18
20630;BME280;17386;43.846;25.950;2023-03-11T11:05:27;99071.81;;;17.36;82.33
20630;BME280;17386;43.846;25.950;2023-03-11T11:08:08;99078.38;;;17.72;80.98
20630;BME280;17386;43.846;25.950;2023-03-11T11:10:36;99069.34;;;17.83;81.05
20630;BME280;17386;43.846;25.950;2023-03-11T11:16:20;99073.69;;;18.33;80.35
20630;BME280;17386;43.846;25.950;2023-03-11T11:18:41;99078.22;;;18.03;79.91
20630;BME280;17386;43.846;25.950;2023-03-11T11:26:33;99070.19;;;17.74;81.44
20630;BME280;17386;43.846;25.950;2023-03-11T11:29:06;99073.81;;;17.44;82.81
20630;BME280;17386;43.846;25.950;2023-03-11T11:31:32;99074.47;;;17.27;82.52
20630;BME280;17386;43.846;25.950;2023-03-11T11:33:57;99078.75;;;16.99;83.12
20630;BME280;17386;43.846;25.950;2023-03-11T11:36:31;99071.09;;;16.84;84.82
20630;BME280;17386;43.846;25.950;2023-03-11T11:39:00;99074.34;;;16.88;85.62
20630;BME280;17386;43.846;25.950;2023-03-11T11:41:30;99068.25;;;16.55;85.71
20630;BME280;17386;43.846;25.950;2023-03-11T11:44:02;99069.44;;;16.41;87.64
20630;BME280;17386;43.846;25.950;2023-03-11T11:46:37;99076.56;;;16.31;88.78
20630;BME280;17386;43.846;25.950;2023-03-11T11:49:20;99066.78;;;16.21;88.45
20630;BME280;17386;43.846;25.950;2023-03-11T11:51:52;99067.75;;;16.20;88.13
20630;BME280;17386;43.846;25.950;2023-03-11T11:54:28;99078.78;;;16.26;89.18
20630;BME280;17386;43.846;25.950;2023-03-11T11:56:55;99070.88;;;16.25;89.82
20630;BME280;17386;43.846;25.950;2023-03-11T11:59:34;99074.72;;;16.32;90.61
20630;BME280;17386;43.846;25.950;2023-03-11T12:04:59;99076.09;;;16.26;89.35
20630;BME280;17386;43.846;25.950;2023-03-11T12:10:44;99091.72;;;16.42;85.99
20630;BME280;17386;43.846;25.950;2023-03-11T12:16:39;99090.81;;;16.32;86.98
20630;BME280;17386;43.846;25.950;2023-03-11T12:19:12;99089.72;;;16.34;87.44
20630;BME280;17386;43.846;25.950;2023-03-11T12:24:46;99084.75;;;16.60;84.89
20630;BME280;17386;43.846;25.950;2023-03-11T12:27:21;99098.06;;;16.62;85.87
20630;BME280;17386;43.846;25.950;2023-03-11T12:29:52;99090.06;;;16.72;84.72
20630;BME280;17386;43.846;25.950;2023-03-11T12:32:39;99097.91;;;16.84;85.32
20630;BME280;17386;43.846;25.950;2023-03-11T12:35:22;99092.84;;;16.91;84.94
20630;BME280;17386;43.846;25.950;2023-03-11T12:43:24;99088.94;;;17.45;82.02
20630;BME280;17386;43.846;25.950;2023-03-11T12:45:52;99084.75;;;17.91;78.74
20630;BME280;17386;43.846;25.950;2023-03-11T12:50:55;99081.75;;;18.23;78.65
20630;BME280;17386;43.846;25.950;2023-03-11T12:53:42;99087.53;;;18.47;77.18
20630;BME280;17386;43.846;25.950;2023-03-11T13:02:55;99087.72;;;18.07;75.98
20630;BME280;17386;43.846;25.950;2023-03-11T13:05:22;99089.50;;;17.58;76.88
20630;BME280;17386;43.846;25.950;2023-03-11T13:10:40;99099.25;;;17.59;73.43
20630;BME280;17386;43.846;25.950;2023-03-11T13:13:32;99093.19;;;17.57;72.44
20630;BME280;17386;43.846;25.950;2023-03-11T13:18:37;99098.97;;;17.62;73.62
20630;BME280;17386;43.846;25.950;2023-03-11T13:21:03;99103.56;;;17.71;73.07
20630;BME280;17386;43.846;25.950;2023-03-11T13:23:37;99100.25;;;17.58;72.15
20630;BME280;17386;43.846;25.950;2023-03-11T13:29:08;99094.69;;;17.40;74.20
20630;BME280;17386;43.846;25.950;2023-03-11T13:40:38;99112.97;;;17.66;74.33
20630;BME280;17386;43.846;25.950;2023-03-11T13:43:20;99099.47;;;17.87;73.38
20630;BME280;17386;43.846;25.950;2023-03-11T13:45:51;99109.34;;;17.96;73.27
20630;BME280;17386;43.846;25.950;2023-03-11T13:48:27;99102.41;;;17.74;74.17
20630;BME280;17386;43.846;25.950;2023-03-11T13:51:00;99100.41;;;17.66;74.49
20630;BME280;17386;43.846;25.950;2023-03-11T13:53:32;99097.28;;;17.52;75.69
20630;BME280;17386;43.846;25.950;2023-03-11T13:55:59;99095.97;;;17.46;76.34
20630;BME280;17386;43.846;25.950;2023-03-11T13:58:27;99094.69;;;17.40;76.53
20630;BME280;17386;43.846;25.950;2023-03-11T14:00:53;99097.69;;;17.47;72.86
20630;BME280;17386;43.846;25.950;2023-03-11T14:03:23;99101.06;;;17.49;71.22
20630;BME280;17386;43.846;25.950;2023-03-11T14:06:05;99098.81;;;17.54;71.71